Time;durP1;ratioP1;P1;durP2;ratioP2;P2;SDS_P1;SDS_P2;PMS_P1;PMS_P2;Temp;Humidity;BMP_temperature;BMP_pressure;BME280_temperature;BME280_humidity;BME280_pressure;Samples;Min_cycle;Max_cycle;Signal;HPM_P1;HPM_P2
2023/06/06 00:00:45;;;;;;;5.50;1.65;;;;;;;20.49;nan;101787.63;5068050;28;20032;-47
2023/06/06 00:03:10;;;;;;;6.97;1.92;;;;;;;20.50;nan;101800.03;5085399;28;20454;-48
2023/06/06 00:05:36;;;;;;;7.40;3.88;;;;;;;20.47;nan;101791.41;5076014;28;20482;-41
2023/06/06 00:08:01;;;;;;;4.72;2.13;;;;;;;20.43;nan;101789.97;5064136;28;20028;-44
2023/06/06 00:10:27;;;;;;;3.97;1.73;;;;;;;20.42;nan;101794.44;5058522;28;20031;-43
2023/06/06 00:12:53;;;;;;;4.10;1.80;;;;;;;20.40;nan;101791.91;5067769;28;20501;-42
2023/06/06 00:15:19;;;;;;;5.55;2.10;;;;;;;20.41;nan;101787.44;5067221;28;20141;-39
2023/06/06 00:17:45;;;;;;;8.68;2.20;;;;;;;20.39;nan;101792.06;5091703;28;20024;-42
2023/06/06 00:20:12;;;;;;;3.85;1.63;;;;;;;20.35;nan;101786.09;5087578;28;20032;-40
2023/06/06 00:22:39;;;;;;;6.65;2.15;;;;;;;20.34;nan;101789.78;5085656;28;20028;-38
2023/06/06 00:25:06;;;;;;;4.70;2.10;;;;;;;20.34;nan;101797.78;5087339;28;20043;-41
2023/06/06 00:27:33;;;;;;;6.07;2.20;;;;;;;20.31;nan;101791.81;5074200;28;20099;-42
2023/06/06 00:29:59;;;;;;;4.05;1.92;;;;;;;20.25;nan;101791.38;5071131;28;20040;-44
2023/06/06 00:32:26;;;;;;;5.47;2.00;;;;;;;20.23;nan;101787.13;5080218;28;20402;-45
2023/06/06 00:34:51;;;;;;;4.75;1.60;;;;;;;20.12;nan;101782.66;5075888;28;20127;-43
2023/06/06 00:37:16;;;;;;;6.20;1.80;;;;;;;20.03;nan;101772.72;5077252;28;20295;-37
2023/06/06 00:39:42;;;;;;;5.25;1.60;;;;;;;19.93;nan;101777.97;5065274;28;20039;-39
2023/06/06 00:42:08;;;;;;;3.75;1.80;;;;;;;19.90;nan;101778.22;5071177;28;20039;-42
2023/06/06 00:44:33;;;;;;;4.13;1.85;;;;;;;19.86;nan;101782.94;5083600;28;20035;-38
2023/06/06 00:46:59;;;;;;;4.53;1.70;;;;;;;19.75;nan;101773.13;5063852;28;20521;-46
2023/06/06 00:49:26;;;;;;;4.22;1.95;;;;;;;19.71;nan;101777.03;5082866;28;20035;-39
2023/06/06 00:51:51;;;;;;;4.40;2.08;;;;;;;19.68;nan;101773.72;5048845;28;20036;-40
2023/06/06 00:54:18;;;;;;;5.88;2.13;;;;;;;19.66;nan;101779.19;5076884;28;20063;-45
2023/06/06 00:56:45;;;;;;;6.07;1.85;;;;;;;19.66;nan;101771.19;5077430;28;20423;-46
2023/06/06 00:59:11;;;;;;;5.63;2.13;;;;;;;19.62;nan;101783.09;5067873;28;20043;-43
2023/06/06 01:01:39;;;;;;;5.00;1.80;;;;;;;19.57;nan;101779.94;5077253;28;20058;-39
2023/06/06 01:04:10;;;;;;;5.03;2.00;;;;;;;19.53;nan;101779.31;5064887;28;20402;-44
2023/06/06 01:06:37;;;;;;;3.80;1.75;;;;;;;19.57;nan;101777.28;5073462;28;20028;-43
2023/06/06 01:09:07;;;;;;;5.38;2.17;;;;;;;19.59;nan;101764.63;5073360;28;20084;-46
2023/06/06 01:12:08;;;;;;;4.60;2.13;;;;;;;19.57;nan;101779.94;5070438;28;20036;-42
2023/06/06 01:15:00;;;;;;;5.18;2.28;;;;;;;19.51;nan;101773.28;5078257;28;20038;-40
2023/06/06 01:17:26;;;;;;;5.13;1.97;;;;;;;19.49;nan;101764.53;5057697;28;20040;-39
2023/06/06 01:19:53;;;;;;;6.22;1.92;;;;;;;19.48;nan;101766.34;5057495;28;20297;-49
2023/06/06 01:22:22;;;;;;;3.40;1.83;;;;;;;19.48;nan;101773.53;5071201;28;20083;-39
2023/06/06 01:24:52;;;;;;;5.18;1.42;;;;;;;19.51;nan;101773.28;5069978;28;20036;-39
2023/06/06 01:27:18;;;;;;;3.75;1.90;;;;;;;19.54;nan;101778.34;5053323;28;20063;-46
2023/06/06 01:29:44;;;;;;;4.88;1.90;;;;;;;19.59;nan;101776.19;5051757;28;20032;-42
2023/06/06 01:32:15;;;;;;;7.45;2.47;;;;;;;19.58;nan;101779.81;5054297;28;20130;-40
2023/06/06 01:34:51;;;;;;;5.95;2.60;;;;;;;19.63;nan;101774.97;5078671;28;20088;-38
2023/06/06 01:37:45;;;;;;;4.70;2.20;;;;;;;19.70;nan;101769.13;5066437;28;20562;-45
2023/06/06 01:40:13;;;;;;;5.80;2.25;;;;;;;19.70;nan;101775.31;5059240;28;20101;-40
2023/06/06 01:42:44;;;;;;;4.25;2.25;;;;;;;19.62;nan;101775.06;5065112;28;20047;-42
2023/06/06 01:45:11;;;;;;;3.72;2.08;;;;;;;19.56;nan;101776.41;5085770;28;20043;-41
2023/06/06 01:47:38;;;;;;;5.45;1.98;;;;;;;19.48;nan;101773.53;5077746;28;20063;-38
2023/06/06 01:50:07;;;;;;;8.25;2.38;;;;;;;19.42;nan;101774.00;5082062;28;20047;-39
2023/06/06 01:52:37;;;;;;;4.43;2.15;;;;;;;19.42;nan;101769.53;5080736;28;20021;-42
2023/06/06 01:55:03;;;;;;;4.68;2.90;;;;;;;19.43;nan;101781.03;5083029;28;20074;-41
2023/06/06 01:57:29;;;;;;;5.28;2.70;;;;;;;19.39;nan;101775.09;5077951;28;20027;-40
2023/06/06 01:59:55;;;;;;;4.93;2.13;;;;;;;19.39;nan;101776.91;5080683;28;20035;-40
2023/06/06 02:02:23;;;;;;;6.22;2.22;;;;;;;19.37;nan;101770.84;5091091;28;20470;-40
2023/06/06 02:04:48;;;;;;;4.32;2.10;;;;;;;19.39;nan;101780.44;5084894;28;20036;-39
2023/06/06 02:07:15;;;;;;;5.45;2.42;;;;;;;19.39;nan;101774.22;5071871;28;20105;-40
2023/06/06 02:09:42;;;;;;;4.72;2.33;;;;;;;19.40;nan;101771.47;5074183;28;20123;-43
2023/06/06 02:12:08;;;;;;;4.15;2.38;;;;;;;19.43;nan;101773.03;5065072;28;20114;-40
2023/06/06 02:14:34;;;;;;;4.57;2.05;;;;;;;19.43;nan;101776.56;5063013;28;20173;-43
2023/06/06 02:17:00;;;;;;;6.25;2.10;;;;;;;19.39;nan;101767.09;5087389;28;20482;-41
2023/06/06 02:19:26;;;;;;;6.35;2.35;;;;;;;19.29;nan;101766.09;5080838;28;20012;-41
2023/06/06 02:21:51;;;;;;;4.93;2.42;;;;;;;19.19;nan;101769.50;5085486;28;20043;-40
2023/06/06 02:24:17;;;;;;;3.80;1.92;;;;;;;19.12;nan;101768.31;5072850;28;21620;-45
2023/06/06 02:26:44;;;;;;;4.30;1.88;;;;;;;19.12;nan;101764.75;5080311;28;20084;-40
2023/06/06 02:29:09;;;;;;;3.97;2.58;;;;;;;19.08;nan;101761.50;5070263;28;20521;-42
2023/06/06 02:31:36;;;;;;;5.70;2.47;;;;;;;19.04;nan;101760.03;5082702;28;20147;-41
2023/06/06 02:34:02;;;;;;;7.57;2.20;;;;;;;19.07;nan;101769.59;5077772;28;20608;-41
2023/06/06 02:36:29;;;;;;;6.03;2.40;;;;;;;19.11;nan;101760.41;5072324;28;20486;-40
2023/06/06 02:38:56;;;;;;;29.50;12.90;;;;;;;19.11;nan;101755.94;5060078;28;20036;-41
2023/06/06 02:41:22;;;;;;;13.80;7.70;;;;;;;19.07;nan;101759.78;5081775;28;20130;-41
2023/06/06 02:43:48;;;;;;;9.05;3.33;;;;;;;18.99;nan;101756.88;5081862;28;20142;-42
2023/06/06 02:46:13;;;;;;;6.20;2.08;;;;;;;18.88;nan;101755.84;5072355;28;20027;-45
2023/06/06 02:48:39;;;;;;;5.70;2.50;;;;;;;18.80;nan;101763.59;5079832;28;20059;-41
2023/06/06 02:51:06;;;;;;;3.78;2.33;;;;;;;18.82;nan;101760.81;5060635;28;20034;-41
2023/06/06 02:53:32;;;;;;;6.28;2.58;;;;;;;18.82;nan;101759.00;5050104;28;20042;-43
2023/06/06 02:55:58;;;;;;;4.47;2.05;;;;;;;18.89;nan;101767.38;5075115;28;20027;-44
2023/06/06 02:58:28;;;;;;;12.85;4.82;;;;;;;18.82;nan;101761.69;5082853;28;21551;-43
2023/06/06 03:00:57;;;;;;;6.22;3.10;;;;;;;18.81;nan;101759.09;5086680;28;20050;-40
2023/06/06 03:03:24;;;;;;;6.63;2.63;;;;;;;18.79;nan;101756.56;5077412;28;20028;-45
2023/06/06 03:05:51;;;;;;;7.82;2.97;;;;;;;18.82;nan;101756.34;5080339;28;20032;-40
2023/06/06 03:08:19;;;;;;;5.70;2.05;;;;;;;18.84;nan;101765.03;5073300;28;20398;-42
2023/06/06 03:10:49;;;;;;;6.35;2.25;;;;;;;18.75;nan;101760.44;5071200;28;20063;-44
2023/06/06 03:13:15;;;;;;;5.20;2.17;;;;;;;18.75;nan;101755.09;5063202;28;20397;-43
2023/06/06 03:15:44;;;;;;;4.75;1.80;;;;;;;18.81;nan;101761.78;5076704;28;20084;-45
2023/06/06 03:18:16;;;;;;;4.40;2.33;;;;;;;18.79;nan;101761.91;5077129;28;20055;-42
2023/06/06 03:20:44;;;;;;;6.38;2.33;;;;;;;18.78;nan;101757.53;5081345;28;20041;-40
2023/06/06 03:23:11;;;;;;;5.97;2.40;;;;;;;18.75;nan;101760.44;5084383;28;20536;-40
2023/06/06 03:25:39;;;;;;;6.78;2.67;;;;;;;18.76;nan;101756.81;5047406;28;20063;-44
2023/06/06 03:28:05;;;;;;;12.05;4.50;;;;;;;18.71;nan;101753.63;5059523;28;20076;-39
2023/06/06 03:30:30;;;;;;;6.75;3.00;;;;;;;18.70;nan;101754.59;5080243;28;20036;-41
2023/06/06 03:32:57;;;;;;;5.25;2.75;;;;;;;18.71;nan;101757.16;5065044;28;20032;-39
2023/06/06 03:35:23;;;;;;;6.43;3.25;;;;;;;18.77;nan;101758.50;5067221;28;20078;-40
2023/06/06 03:37:49;;;;;;;15.57;2.58;;;;;;;18.76;nan;101766.59;5084560;28;20405;-41
2023/06/06 03:40:14;;;;;;;6.10;2.60;;;;;;;18.73;nan;101760.56;5074150;28;20027;-38
2023/06/06 03:42:40;;;;;;;5.80;2.70;;;;;;;18.72;nan;101760.66;5053298;28;20040;-41
2023/06/06 03:45:06;;;;;;;6.68;2.78;;;;;;;18.76;nan;101761.28;5079104;28;24351;-39
2023/06/06 03:47:31;;;;;;;5.70;2.55;;;;;;;18.79;nan;101753.91;5053758;28;20450;-40
2023/06/06 03:49:57;;;;;;;6.30;3.00;;;;;;;18.82;nan;101758.16;5063088;28;20562;-39
2023/06/06 03:52:23;;;;;;;8.30;1.80;;;;;;;18.82;nan;101761.69;5085423;28;20503;-42
2023/06/06 03:54:48;;;;;;;5.47;2.67;;;;;;;18.88;nan;101763.84;5082770;28;20031;-39
2023/06/06 03:57:13;;;;;;;6.15;2.90;;;;;;;18.93;nan;101754.66;5083152;28;20024;-41
2023/06/06 03:59:39;;;;;;;5.93;2.55;;;;;;;18.96;nan;101757.97;5070011;28;20108;-38
2023/06/06 04:02:05;;;;;;;6.80;2.80;;;;;;;18.99;nan;101754.19;5059844;28;20118;-38
2023/06/06 04:04:31;;;;;;;7.65;3.00;;;;;;;18.97;nan;101749.00;5081454;28;20559;-39
2023/06/06 04:06:59;;;;;;;8.93;3.42;;;;;;;18.99;nan;101752.41;5082667;28;20032;-44
2023/06/06 04:09:25;;;;;;;12.60;5.35;;;;;;;18.99;nan;101752.41;5085157;28;20047;-39
2023/06/06 04:11:51;;;;;;;10.45;3.20;;;;;;;19.04;nan;101749.38;5079220;28;20493;-39
2023/06/06 04:14:16;;;;;;;8.85;2.78;;;;;;;19.07;nan;101749.13;5082266;28;20040;-39
2023/06/06 04:16:42;;;;;;;5.80;1.73;;;;;;;19.10;nan;101753.38;5084338;28;20398;-42
2023/06/06 04:19:08;;;;;;;5.07;2.08;;;;;;;19.11;nan;101747.06;5052053;28;20051;-40
2023/06/06 04:21:33;;;;;;;8.18;3.13;;;;;;;19.14;nan;101755.66;5085166;28;20475;-39
2023/06/06 04:24:00;;;;;;;6.43;2.97;;;;;;;19.15;nan;101749.38;5065008;28;20508;-42
2023/06/06 04:26:31;;;;;;;7.63;2.20;;;;;;;19.16;nan;101748.41;5084037;28;20093;-41
2023/06/06 04:29:02;;;;;;;5.05;2.30;;;;;;;19.18;nan;101745.63;5072305;28;20477;-44
2023/06/06 04:31:31;;;;;;;4.10;2.45;;;;;;;19.22;nan;101751.56;5071352;28;20564;-42
2023/06/06 04:33:57;;;;;;;10.48;2.95;;;;;;;19.23;nan;101753.25;5052077;28;20029;-40
2023/06/06 04:36:26;;;;;;;10.57;3.05;;;;;;;19.26;nan;101743.19;5073366;28;20104;-42
2023/06/06 04:38:53;;;;;;;7.47;2.47;;;;;;;19.29;nan;101755.44;5059892;28;20031;-42
2023/06/06 04:41:22;;;;;;;5.90;2.85;;;;;;;19.31;nan;101750.81;5070543;28;20032;-41
2023/06/06 04:43:49;;;;;;;6.90;2.75;;;;;;;19.30;nan;101755.31;5059239;28;20059;-43
2023/06/06 04:46:23;;;;;;;7.78;3.35;;;;;;;19.31;nan;101756.16;5056750;28;20039;-41
2023/06/06 04:48:53;;;;;;;8.57;2.53;;;;;;;19.31;nan;101754.34;5081191;28;20037;-42
2023/06/06 04:51:20;;;;;;;11.60;3.00;;;;;;;19.35;nan;101749.63;5079285;28;20047;-41
2023/06/06 04:53:46;;;;;;;9.88;3.00;;;;;;;19.33;nan;101749.75;5081385;28;20026;-42
2023/06/06 04:56:12;;;;;;;6.65;2.65;;;;;;;19.37;nan;101753.03;5056444;28;20035;-44
2023/06/06 04:58:39;;;;;;;7.85;2.80;;;;;;;19.40;nan;101750.13;5066143;28;20043;-47
2023/06/06 05:01:04;;;;;;;10.73;3.63;;;;;;;19.41;nan;101743.81;5081948;28;20024;-40
2023/06/06 05:03:31;;;;;;;17.17;3.15;;;;;;;19.41;nan;101750.94;5063430;28;20039;-45
2023/06/06 05:05:56;;;;;;;10.38;2.90;;;;;;;19.38;nan;101745.84;5062463;28;20402;-43
2023/06/06 05:08:22;;;;;;;6.82;2.50;;;;;;;19.38;nan;101745.84;5080894;28;20486;-40
2023/06/06 05:10:47;;;;;;;6.45;2.63;;;;;;;19.38;nan;101746.72;5062856;28;20069;-44
2023/06/06 05:13:17;;;;;;;7.93;3.30;;;;;;;19.42;nan;101749.97;5079618;28;20042;-41
2023/06/06 05:15:43;;;;;;;6.80;2.33;;;;;;;19.45;nan;101753.25;5083476;28;20016;-40
2023/06/06 05:18:08;;;;;;;13.23;2.88;;;;;;;19.48;nan;101747.66;5069961;28;20796;-42
2023/06/06 05:20:33;;;;;;;6.65;2.50;;;;;;;19.55;nan;101741.84;5079405;28;20560;-39
2023/06/06 05:22:59;;;;;;;8.63;2.75;;;;;;;19.59;nan;101746.81;5064387;28;20032;-40
2023/06/06 05:25:25;;;;;;;9.95;3.17;;;;;;;19.64;nan;101741.97;5068810;28;20363;-42
2023/06/06 05:27:51;;;;;;;18.58;6.35;;;;;;;19.70;nan;101755.78;5069641;28;20531;-39
2023/06/06 05:30:17;;;;;;;25.45;11.48;;;;;;;19.73;nan;101751.06;5072186;28;20036;-39
2023/06/06 05:32:43;;;;;;;9.98;4.55;;;;;;;19.73;nan;101751.06;5063636;28;20028;-39
2023/06/06 05:35:08;;;;;;;18.48;3.13;;;;;;;19.80;nan;101751.41;5080910;28;20473;-45
2023/06/06 05:37:34;;;;;;;20.77;4.65;;;;;;;19.87;nan;101754.44;5085142;28;20036;-40
2023/06/06 05:39:59;;;;;;;12.38;3.85;;;;;;;19.93;nan;101753.94;5083436;28;20118;-39
2023/06/06 05:42:25;;;;;;;6.43;2.85;;;;;;;19.98;nan;101753.56;5077940;28;20402;-40
2023/06/06 05:44:50;;;;;;;12.65;5.57;;;;;;;20.01;nan;101754.16;5082872;28;20028;-41
2023/06/06 05:47:16;;;;;;;11.18;3.33;;;;;;;20.04;nan;101747.72;5073385;28;20035;-38
2023/06/06 05:49:42;;;;;;;10.25;2.45;;;;;;;20.07;nan;101748.31;5085846;28;20117;-41
2023/06/06 05:52:07;;;;;;;9.50;2.97;;;;;;;20.11;nan;101748.91;5089082;28;20424;-46
2023/06/06 05:54:34;;;;;;;5.57;2.15;;;;;;;20.14;nan;101748.63;5086286;28;20026;-42
2023/06/06 05:57:00;;;;;;;6.68;2.33;;;;;;;20.18;nan;101752.75;5082703;28;20470;-38
2023/06/06 05:59:26;;;;;;;6.80;2.75;;;;;;;20.23;nan;101758.59;5086482;28;20024;-41
2023/06/06 06:01:52;;;;;;;8.65;3.50;;;;;;;20.26;nan;101757.47;5081392;28;20119;-41
2023/06/06 06:04:18;;;;;;;5.32;2.50;;;;;;;20.31;nan;101755.28;5077192;28;20096;-39
2023/06/06 06:06:46;;;;;;;7.45;2.78;;;;;;;20.35;nan;101756.69;5083642;28;20142;-45
2023/06/06 06:09:13;;;;;;;5.22;2.42;;;;;;;20.40;nan;101757.16;5086840;28;20039;-47
2023/06/06 06:11:40;;;;;;;9.00;2.55;;;;;;;20.45;nan;101759.44;5086532;28;20429;-44
2023/06/06 06:14:05;;;;;;;6.60;2.60;;;;;;;20.49;nan;101758.22;5060648;28;20032;-41
2023/06/06 06:16:31;;;;;;;10.13;2.33;;;;;;;20.54;nan;101760.50;5087686;28;20036;-44
2023/06/06 06:18:56;;;;;;;6.15;2.15;;;;;;;20.59;nan;101768.13;5079317;28;20080;-43
2023/06/06 06:21:22;;;;;;;3.70;2.15;;;;;;;20.63;nan;101769.56;5084554;28;20039;-42
2023/06/06 06:23:51;;;;;;;9.20;2.63;;;;;;;20.67;nan;101769.19;5050460;28;20032;-43
2023/06/06 06:26:17;;;;;;;4.68;2.63;;;;;;;20.70;nan;101768.94;5067003;28;20557;-41
2023/06/06 06:28:42;;;;;;;7.47;2.85;;;;;;;20.74;nan;101768.66;5087233;28;20119;-44
2023/06/06 06:31:08;;;;;;;8.77;2.38;;;;;;;20.78;nan;101768.31;5083780;28;20032;-43
2023/06/06 06:33:34;;;;;;;10.20;2.63;;;;;;;20.84;nan;101769.59;5084765;28;20028;-42
2023/06/06 06:36:00;;;;;;;5.90;2.78;;;;;;;20.90;nan;101774.44;5082676;28;20043;-43
2023/06/06 06:38:25;;;;;;;10.65;2.75;;;;;;;20.94;nan;101772.34;5082272;28;20028;-44
2023/06/06 06:40:53;;;;;;;11.40;4.03;;;;;;;21.00;nan;101778.00;5059251;28;20412;-42
2023/06/06 06:43:18;;;;;;;11.52;3.80;;;;;;;21.06;nan;101781.16;5081938;28;20039;-43
2023/06/06 06:45:43;;;;;;;7.05;3.30;;;;;;;21.10;nan;101778.06;5084680;28;20682;-43
2023/06/06 06:48:09;;;;;;;7.30;2.78;;;;;;;21.13;nan;101776.94;5082625;28;20093;-43
2023/06/06 06:50:34;;;;;;;7.50;3.03;;;;;;;21.18;nan;101780.09;5079543;28;20081;-41
2023/06/06 06:53:02;;;;;;;7.63;2.97;;;;;;;21.22;nan;101781.53;5084026;28;20050;-44
2023/06/06 06:55:28;;;;;;;5.93;2.90;;;;;;;21.25;nan;101783.91;5078034;28;20063;-41
2023/06/06 06:57:54;;;;;;;8.13;3.08;;;;;;;21.29;nan;101788.00;5083951;28;20063;-44
2023/06/06 07:00:23;;;;;;;6.75;2.75;;;;;;;21.33;nan;101791.25;5076827;28;20054;-41
2023/06/06 07:02:54;;;;;;;7.50;2.80;;;;;;;21.36;nan;101788.31;5077525;28;20081;-45
2023/06/06 07:05:20;;;;;;;7.57;2.88;;;;;;;21.39;nan;101790.75;5077065;28;20603;-44
2023/06/06 07:07:52;;;;;;;6.07;2.30;;;;;;;21.47;nan;101787.38;5056280;28;20106;-40
2023/06/06 07:10:18;;;;;;;6.72;2.53;;;;;;;21.50;nan;101791.63;5080524;28;20024;-42
2023/06/06 07:12:49;;;;;;;4.35;2.42;;;;;;;21.56;nan;101788.41;5079812;28;20101;-44
2023/06/06 07:15:15;;;;;;;5.27;2.63;;;;;;;21.58;nan;101787.28;5081592;28;20115;-42
2023/06/06 07:17:50;;;;;;;10.48;3.28;;;;;;;21.61;nan;101787.06;5078491;28;20115;-41
2023/06/06 07:20:18;;;;;;;6.40;2.90;;;;;;;21.64;nan;101785.09;5066404;28;20418;-42
2023/06/06 07:22:43;;;;;;;8.90;3.22;;;;;;;21.66;nan;101788.47;5066253;28;20191;-44
2023/06/06 07:25:09;;;;;;;10.38;2.85;;;;;;;21.68;nan;101786.53;5082605;28;20046;-41
2023/06/06 07:27:36;;;;;;;6.85;3.03;;;;;;;21.71;nan;101792.44;5086906;28;20050;-42
2023/06/06 07:30:12;;;;;;;5.60;2.42;;;;;;;21.76;nan;101784.00;5075225;28;20024;-40
2023/06/06 07:32:41;;;;;;;7.90;2.78;;;;;;;21.78;nan;101777.50;5086662;28;20023;-41
2023/06/06 07:35:07;;;;;;;8.07;3.08;;;;;;;21.83;nan;101784.28;5084121;28;20254;-42
2023/06/06 07:37:34;;;;;;;7.30;2.80;;;;;;;21.89;nan;101781.91;5087055;28;20051;-42
2023/06/06 07:40:00;;;;;;;4.38;2.08;;;;;;;21.93;nan;101780.66;5069279;28;20028;-43
2023/06/06 07:42:25;;;;;;;6.78;2.55;;;;;;;21.95;nan;101782.34;5059328;28;20385;-44
2023/06/06 07:44:55;;;;;;;6.85;2.38;;;;;;;21.97;nan;101783.91;5082879;28;20039;-40
2023/06/06 07:47:22;;;;;;;6.25;2.88;;;;;;;21.99;nan;101775.72;5086750;28;20145;-38
2023/06/06 07:49:47;;;;;;;6.88;2.60;;;;;;;22.01;nan;101777.28;5068501;28;20032;-44
2023/06/06 07:52:13;;;;;;;5.55;2.67;;;;;;;22.03;nan;101779.81;5069806;28;20043;-41
2023/06/06 07:54:40;;;;;;;5.13;2.25;;;;;;;22.05;nan;101778.69;5072135;28;20031;-44
2023/06/06 07:57:07;;;;;;;11.48;2.70;;;;;;;22.05;nan;101778.69;5087686;28;20044;-43
2023/06/06 07:59:34;;;;;;;9.20;2.63;;;;;;;22.11;nan;101782.66;5086895;28;20055;-39
2023/06/06 08:02:00;;;;;;;9.38;2.95;;;;;;;22.17;nan;101784.75;5035929;28;20056;-43
2023/06/06 08:04:26;;;;;;;6.45;2.17;;;;;;;22.20;nan;101787.16;5085631;28;20055;-44
2023/06/06 08:06:51;;;;;;;6.90;2.58;;;;;;;22.25;nan;101783.22;5084902;28;20514;-42
2023/06/06 08:09:17;;;;;;;10.40;2.63;;;;;;;22.28;nan;101785.63;5086124;28;20031;-39
2023/06/06 08:11:42;;;;;;;7.30;2.13;;;;;;;22.32;nan;101778.97;5089416;28;21229;-41
2023/06/06 08:14:08;;;;;;;7.72;2.53;;;;;;;22.36;nan;101783.09;5071962;28;20028;-41
2023/06/06 08:16:33;;;;;;;17.52;3.50;;;;;;;22.39;nan;101772.09;5077709;28;20028;-41
2023/06/06 08:18:59;;;;;;;9.48;2.40;;;;;;;22.46;nan;101777.75;5091290;28;20432;-44
2023/06/06 08:21:25;;;;;;;17.08;3.00;;;;;;;22.50;nan;101777.31;5058162;28;20030;-43
2023/06/06 08:23:50;;;;;;;4.18;1.98;;;;;;;22.53;nan;101777.03;5088452;28;20036;-41
2023/06/06 08:26:16;;;;;;;4.63;2.50;;;;;;;22.57;nan;101766.03;5083910;28;20386;-41
2023/06/06 08:28:41;;;;;;;7.28;2.90;;;;;;;22.60;nan;101776.50;5089597;28;20069;-40
2023/06/06 08:31:08;;;;;;;5.50;2.55;;;;;;;22.63;nan;101771.69;5090676;28;20068;-39
2023/06/06 08:33:33;;;;;;;6.13;2.38;;;;;;;22.66;nan;101770.53;5083881;28;20020;-40
2023/06/06 08:35:58;;;;;;;6.57;2.33;;;;;;;22.69;nan;101772.94;5070593;28;20910;-40
2023/06/06 08:38:24;;;;;;;14.13;6.95;;;;;;;22.72;nan;101775.34;5088679;28;20032;-43
2023/06/06 08:40:52;;;;;;;15.77;7.10;;;;;;;22.74;nan;101768.00;5091643;28;20107;-43
2023/06/06 08:43:22;;;;;;;12.00;3.42;;;;;;;22.80;nan;101778.13;5086731;28;20035;-41
2023/06/06 08:45:56;;;;;;;21.30;4.45;;;;;;;22.82;nan;101769.97;5072836;28;20023;-43
2023/06/06 08:48:23;;;;;;;10.40;2.85;;;;;;;22.88;nan;101765.84;5086531;28;20080;-41
2023/06/06 08:50:49;;;;;;;7.55;3.20;;;;;;;22.91;nan;101763.72;5088427;28;20631;-42
2023/06/06 08:53:15;;;;;;;4.00;2.40;;;;;;;22.97;nan;101762.28;5090115;28;20032;-42
2023/06/06 08:55:40;;;;;;;4.90;1.65;;;;;;;22.99;nan;101766.50;5068560;28;20036;-43
2023/06/06 08:58:06;;;;;;;8.80;3.10;;;;;;;23.06;nan;101763.25;5085463;28;20039;-45
2023/06/06 09:00:32;;;;;;;4.50;2.65;;;;;;;23.13;nan;101751.78;5065274;28;20011;-42
2023/06/06 09:02:59;;;;;;;5.53;2.60;;;;;;;23.20;nan;101746.69;5074388;28;20406;-44
2023/06/06 09:05:25;;;;;;;4.53;2.22;;;;;;;23.23;nan;101748.22;5089761;28;20031;-42
2023/06/06 09:07:53;;;;;;;3.78;2.28;;;;;;;23.26;nan;101753.31;5086540;28;20472;-41
2023/06/06 09:10:19;;;;;;;5.65;2.00;;;;;;;23.20;nan;101753.88;5091601;28;20024;-41
2023/06/06 09:12:46;;;;;;;5.90;2.70;;;;;;;23.21;nan;101747.56;5084872;28;20042;-42
2023/06/06 09:15:13;;;;;;;4.65;2.13;;;;;;;23.22;nan;101747.38;5089488;28;20020;-42
2023/06/06 09:17:40;;;;;;;6.15;2.30;;;;;;;23.25;nan;101749.78;5069598;28;20107;-43
2023/06/06 09:20:06;;;;;;;6.05;2.30;;;;;;;23.34;nan;101749.88;5087979;28;20054;-42
2023/06/06 09:22:42;;;;;;;4.55;2.30;;;;;;;23.42;nan;101747.31;5079492;28;20035;-43
2023/06/06 09:25:22;;;;;;;12.48;2.50;;;;;;;23.48;nan;101743.19;5063404;28;20385;-41
2023/06/06 09:27:53;;;;;;;12.05;6.20;;;;;;;23.52;nan;101750.78;5083218;28;20131;-42
2023/06/06 09:30:27;;;;;;;8.60;3.50;;;;;;;23.56;nan;101754.88;5080294;28;20107;-42
2023/06/06 09:32:53;;;;;;;7.15;2.17;;;;;;;23.60;nan;101750.03;5085375;28;20143;-42
2023/06/06 09:35:19;;;;;;;7.72;2.30;;;;;;;23.63;nan;101747.06;5083157;28;20664;-44
2023/06/06 09:37:48;;;;;;;7.32;2.17;;;;;;;23.71;nan;101735.56;5060531;28;20032;-44
2023/06/06 09:40:16;;;;;;;6.30;2.03;;;;;;;23.77;nan;101743.00;5086201;28;20020;-44
2023/06/06 09:42:47;;;;;;;3.47;1.52;;;;;;;23.84;nan;101737.84;5086191;28;20114;-44
2023/06/06 09:45:19;;;;;;;8.48;2.47;;;;;;;23.90;nan;101739.94;5090136;28;20019;-45
2023/06/06 09:47:47;;;;;;;4.53;1.95;;;;;;;23.93;nan;101741.47;5087303;28;20026;-42
2023/06/06 09:50:15;;;;;;;7.47;2.00;;;;;;;23.96;nan;101739.38;5085448;28;20028;-43
2023/06/06 09:52:41;;;;;;;4.70;2.10;;;;;;;24.00;nan;101738.06;5088376;28;20127;-40
2023/06/06 09:55:15;;;;;;;6.97;2.50;;;;;;;24.10;nan;101737.16;5083730;28;20035;-41
2023/06/06 09:57:41;;;;;;;6.60;2.25;;;;;;;24.15;nan;101734.81;5083812;28;20148;-43
2023/06/06 10:00:15;;;;;;;5.72;1.77;;;;;;;24.20;nan;101730.66;5086273;28;20021;-41
2023/06/06 10:02:46;;;;;;;4.10;1.85;;;;;;;24.24;nan;101733.06;5083912;28;20097;-43
2023/06/06 10:05:14;;;;;;;5.10;1.90;;;;;;;24.28;nan;101729.06;5086665;28;20028;-42
2023/06/06 10:07:46;;;;;;;4.97;2.00;;;;;;;24.33;nan;101724.91;5086478;28;20274;-41
2023/06/06 10:10:15;;;;;;;7.13;2.83;;;;;;;24.40;nan;101724.28;5085735;28;20669;-45
2023/06/06 10:12:43;;;;;;;4.95;2.45;;;;;;;24.50;nan;101727.72;5082722;28;20016;-43
2023/06/06 10:15:10;;;;;;;4.32;2.22;;;;;;;24.59;nan;101732.16;5085071;28;20050;-44
2023/06/06 10:17:37;;;;;;;4.72;2.03;;;;;;;24.64;nan;101723.63;5081981;28;20048;-44
2023/06/06 10:20:07;;;;;;;8.85;2.60;;;;;;;24.71;nan;101722.00;5082483;28;20394;-42
2023/06/06 10:22:36;;;;;;;10.45;2.67;;;;;;;24.79;nan;101721.22;5086317;28;20040;-42
2023/06/06 10:25:12;;;;;;;7.28;2.80;;;;;;;24.85;nan;101717.03;5067911;28;20036;-45
2023/06/06 10:28:07;;;;;;;7.03;3.30;;;;;;;24.96;nan;101724.84;5086713;28;20024;-43
2023/06/06 10:30:41;;;;;;;6.07;2.45;;;;;;;25.04;nan;101724.03;5077368;28;20040;-44
2023/06/06 10:33:46;;;;;;;7.57;3.10;;;;;;;25.09;nan;101727.97;5082917;28;20482;-45
2023/06/06 10:36:16;;;;;;;11.15;2.28;;;;;;;25.12;nan;101721.41;5082820;28;20038;-45
2023/06/06 10:39:19;;;;;;;5.75;3.25;;;;;;;25.26;nan;101715.41;5087644;28;20111;-41
2023/06/06 10:41:55;;;;;;;6.43;2.38;;;;;;;25.33;nan;101723.66;5084022;28;20472;-39
2023/06/06 10:44:41;;;;;;;5.57;2.00;;;;;;;25.37;nan;101727.72;5066150;28;20035;-40
2023/06/06 10:47:30;;;;;;;3.35;1.77;;;;;;;25.39;nan;101724.88;5083694;28;20031;-40
2023/06/06 10:50:11;;;;;;;9.70;4.65;;;;;;;25.41;nan;101714.78;5071187;28;20054;-41
2023/06/06 10:53:04;;;;;;;6.80;3.05;;;;;;;25.42;nan;101713.81;5080511;28;20051;-40
2023/06/06 10:55:30;;;;;;;9.38;2.13;;;;;;;25.44;nan;101719.88;5077441;28;20444;-41
2023/06/06 10:58:21;;;;;;;6.35;2.67;;;;;;;25.57;nan;101714.00;5080494;28;20031;-40
2023/06/06 11:00:49;;;;;;;6.32;1.83;;;;;;;25.63;nan;101707.13;5073266;28;20035;-41
2023/06/06 11:03:19;;;;;;;5.30;1.90;;;;;;;25.65;nan;101705.94;5081015;28;20046;-43
2023/06/06 11:05:59;;;;;;;6.30;2.60;;;;;;;25.70;nan;101706.31;5081004;28;20055;-43
2023/06/06 11:08:38;;;;;;;3.55;1.83;;;;;;;25.79;nan;101701.75;5076962;28;20085;-40
2023/06/06 11:11:33;;;;;;;10.68;2.55;;;;;;;25.89;nan;101703.47;5081447;28;20085;-39
2023/06/06 11:14:07;;;;;;;4.35;2.30;;;;;;;25.95;nan;101706.31;5081092;28;20032;-40
2023/06/06 11:16:43;;;;;;;4.68;2.35;;;;;;;26.08;nan;101694.19;5062616;28;20101;-39
2023/06/06 11:19:19;;;;;;;6.45;2.15;;;;;;;26.10;nan;101703.78;5076984;28;20522;-42
2023/06/06 11:21:49;;;;;;;5.90;1.90;;;;;;;26.09;nan;101691.31;5070546;28;20043;-40
2023/06/06 11:24:16;;;;;;;5.97;2.10;;;;;;;26.11;nan;101693.91;5075459;28;20103;-41
2023/06/06 11:26:42;;;;;;;3.47;1.65;;;;;;;26.37;nan;101695.56;5062839;28;20119;-39
2023/06/06 11:29:09;;;;;;;4.53;2.20;;;;;;;26.50;nan;101697.75;5059463;28;20053;-41
2023/06/06 11:31:36;;;;;;;6.07;2.08;;;;;;;26.61;nan;101689.28;5069489;28;20028;-40
2023/06/06 11:34:06;;;;;;;7.00;1.88;;;;;;;26.61;nan;101689.28;5078815;28;20158;-40
2023/06/06 11:36:33;;;;;;;6.97;4.90;;;;;;;26.80;nan;101692.66;5082761;28;20031;-40
2023/06/06 11:39:01;;;;;;;8.07;4.70;;;;;;;26.89;nan;101692.44;5077296;28;20579;-40
2023/06/06 11:41:30;;;;;;;3.05;1.77;;;;;;;26.92;nan;101685.84;5072593;28;20032;-39
2023/06/06 11:43:56;;;;;;;3.78;1.90;;;;;;;27.00;nan;101683.09;5076840;28;20040;-40
2023/06/06 11:46:21;;;;;;;3.78;1.63;;;;;;;27.11;nan;101683.75;5066665;28;20717;-44